Bea Schulte — VRGA2 — position and weather

sailwx.info

Track history (hours):
 
Tides and Currents Weather Stations Pressure Air Temp Water Temp Dewpoint Dewpoint Depression Visibility Wind Speed Wind Dir Waves Ship Positions

Bea Schulte

Last reported at 2018-Feb-22 04:57 UTC. Time now 2018-Feb-22 05:30 UTC.
Position N 01°17' E 103°46'.

Length 264 m; draft 7.6 m.

Type: Ship. MMSI: 477639500.

Date/timePositionNaut miles runAvg speedWind from/ knotsBaromVisibWave heightAir tempDewpointWater temp
2018-Feb-22 04:57N 01°17' E 103°46'0 0.0
2018-Feb-22 04:30N 01°17' E 103°46'0 0.0
2018-Feb-22 04:00N 01°17' E 103°46'0 0.0
2018-Feb-22 03:30N 01°17' E 103°46'0 0.0
2018-Feb-22 03:00N 01°17' E 103°46'0 0.0
2018-Feb-22 02:30N 01°17' E 103°46'0 0.0
2018-Feb-22 02:00N 01°17' E 103°46'0 0.0
2018-Feb-22 01:30N 01°17' E 103°46'0 0.0
2018-Feb-22 01:00N 01°17' E 103°46'0 0.0
2018-Feb-22 00:30N 01°17' E 103°46'0 0.0
2018-Feb-22 00:00N 01°17' E 103°46'0 0.0
2018-Feb-21 23:30N 01°17' E 103°46'0 0.0
2018-Feb-21 23:00N 01°17' E 103°46'0 0.0
2018-Feb-21 22:30N 01°17' E 103°46'0 0.0
2018-Feb-21 22:00N 01°17' E 103°46'0 0.0
2018-Feb-21 21:30N 01°17' E 103°46'0 0.0
2018-Feb-21 21:00N 01°17' E 103°46'0 0.0
2018-Feb-21 20:30N 01°17' E 103°46'0 0.0
2018-Feb-21 20:00N 01°17' E 103°46'0 0.0
2018-Feb-21 19:30N 01°17' E 103°46'0 0.0
2018-Feb-21 19:00N 01°17' E 103°46'0 0.0
2018-Feb-21 18:30N 01°17' E 103°46'0 0.0
2018-Feb-21 18:00N 01°17' E 103°46'0 0.0
2018-Feb-21 17:30N 01°17' E 103°46'0 0.0
2018-Feb-21 17:00N 01°17' E 103°46'0 0.0
2018-Feb-21 16:30N 01°17' E 103°46'0 0.1
2018-Feb-21 16:00N 01°17' E 103°46'1 1.5
2018-Feb-21 15:30N 01°17' E 103°46'1 2.1
2018-Feb-21 14:58N 01°17' E 103°44'0 0.9
2018-Feb-21 14:30N 01°17' E 103°45'3 6.8
2018-Feb-21 14:00N 01°14' E 103°47'0 0.2
2018-Feb-21 13:30N 01°14' E 103°47'0 0.0
2018-Feb-21 13:00N 01°14' E 103°47'0 0.0
2018-Feb-21 12:30N 01°14' E 103°47'0 0.1
2018-Feb-21 12:00N 01°14' E 103°47'0 0.1
2018-Feb-21 11:27N 01°14' E 103°47'0 0.1
2018-Feb-21 11:00N 01°14' E 103°47'0 0.1
2018-Feb-21 10:30N 01°14' E 103°47'0 0.1
2018-Feb-21 10:00N 01°14' E 103°47'0 0.0
2018-Feb-21 09:30N 01°14' E 103°47'0 0.0
2018-Feb-21 09:00N 01°14' E 103°47'0 0.1
2018-Feb-21 08:30N 01°14' E 103°47'0 0.0
2018-Feb-21 08:00N 01°14' E 103°47'0 0.2
2018-Feb-21 07:30N 01°14' E 103°47'0 0.0
2018-Feb-21 07:00N 01°14' E 103°47'0 0.0
2018-Feb-21 06:30N 01°14' E 103°47'0 0.0
2018-Feb-21 06:00N 01°14' E 103°47'0 0.0
2018-Feb-21 05:21N 01°14' E 103°47'0 0.0
2018-Feb-21 05:00N 01°14' E 103°47'0 0.0
2018-Feb-21 04:21N 01°14' E 103°47'0 0.0
2018-Feb-21 03:57N 01°14' E 103°47'0 0.0
2018-Feb-21 03:30N 01°14' E 103°47'0 0.1
2018-Feb-21 02:54N 01°14' E 103°47'0 0.2
2018-Feb-21 02:30N 01°14' E 103°47'0 0.1
2018-Feb-21 02:00N 01°14' E 103°47'0 0.0
2018-Feb-21 01:30N 01°14' E 103°47'0 0.0
2018-Feb-21 00:57N 01°14' E 103°47'0 0.0
2018-Feb-21 00:30N 01°14' E 103°47'0 0.1
2018-Feb-21 00:00N 01°14' E 103°47'0 0.1
2018-Feb-20 23:30N 01°14' E 103°47'0 0.0
2018-Feb-20 23:00N 01°14' E 103°47'0 0.0
2018-Feb-20 22:30N 01°14' E 103°47'0 0.1
2018-Feb-20 21:57N 01°14' E 103°47'0 0.1
2018-Feb-20 21:30N 01°14' E 103°47'0 0.0
2018-Feb-20 21:00N 01°14' E 103°47'0 0.1
2018-Feb-20 20:30N 01°14' E 103°47'0 0.1
2018-Feb-20 20:00N 01°14' E 103°47'0 0.0
2018-Feb-20 19:24N 01°14' E 103°47'0 0.0
2018-Feb-20 18:57N 01°14' E 103°47'0 0.0
2018-Feb-20 18:30N 01°14' E 103°47'0 0.1
2018-Feb-20 18:00N 01°14' E 103°47'0 0.4
2018-Feb-20 17:29N 01°14' E 103°47'3 5.9
2018-Feb-20 17:00N 01°15' E 103°44'4 8.5
2018-Feb-20 16:30N 01°13' E 103°41'2 3.1
2018-Feb-20 15:59N 01°11' E 103°40'2 5.2
2018-Feb-20 15:30N 01°09' E 103°42'2 3.5
2018-Feb-20 14:58N 01°09' E 103°43'1 3.0
2018-Feb-20 14:31N 01°09' E 103°45'2 4.5
2018-Feb-20 13:59N 01°10' E 103°47'510.6
2018-Feb-20 13:29N 01°12' E 103°52'610.5
2018-Feb-20 12:57N 01°14' E 103°57'510.7
2018-Feb-20 12:29N 01°16' E 104°02'511.4
2018-Feb-20 12:00N 01°16' E 104°07'  
2018-Feb-15 09:12N 23°02' E 117°47'313.0
2018-Feb-15 08:59N 23°04' E 117°50'913.2
2018-Feb-15 08:18N 23°10' E 117°56'  
Track history (hours):
 
Tides and Currents Weather Stations Pressure Air Temp Water Temp Dewpoint Dewpoint Depression Visibility Wind Speed Wind Dir Waves Ship Positions

Bea Schulte

Last reported at 2018-Feb-22 04:57 UTC. Time now 2018-Feb-22 05:30 UTC.
Position N 01°17' E 103°46'.

Length 264 m; draft 7.6 m.

Type: Ship. MMSI: 477639500.

Date/timePositionNaut miles runAvg speedWind from/ knotsBaromVisibWave heightAir tempDewpointWater temp
2018-Feb-22 04:57N 01°17' E 103°46'0 0.0
2018-Feb-22 04:30N 01°17' E 103°46'0 0.0
2018-Feb-22 04:00N 01°17' E 103°46'0 0.0
2018-Feb-22 03:30N 01°17' E 103°46'0 0.0
2018-Feb-22 03:00N 01°17' E 103°46'0 0.0
2018-Feb-22 02:30N 01°17' E 103°46'0 0.0
2018-Feb-22 02:00N 01°17' E 103°46'0 0.0
2018-Feb-22 01:30N 01°17' E 103°46'0 0.0
2018-Feb-22 01:00N 01°17' E 103°46'0 0.0
2018-Feb-22 00:30N 01°17' E 103°46'0 0.0
2018-Feb-22 00:00N 01°17' E 103°46'0 0.0
2018-Feb-21 23:30N 01°17' E 103°46'0 0.0
2018-Feb-21 23:00N 01°17' E 103°46'0 0.0
2018-Feb-21 22:30N 01°17' E 103°46'0 0.0
2018-Feb-21 22:00N 01°17' E 103°46'0 0.0
2018-Feb-21 21:30N 01°17' E 103°46'0 0.0
2018-Feb-21 21:00N 01°17' E 103°46'0 0.0
2018-Feb-21 20:30N 01°17' E 103°46'0 0.0
2018-Feb-21 20:00N 01°17' E 103°46'0 0.0
2018-Feb-21 19:30N 01°17' E 103°46'0 0.0
2018-Feb-21 19:00N 01°17' E 103°46'0 0.0
2018-Feb-21 18:30N 01°17' E 103°46'0 0.0
2018-Feb-21 18:00N 01°17' E 103°46'0 0.0
2018-Feb-21 17:30N 01°17' E 103°46'0 0.0
2018-Feb-21 17:00N 01°17' E 103°46'0 0.0
2018-Feb-21 16:30N 01°17' E 103°46'0 0.1
2018-Feb-21 16:00N 01°17' E 103°46'1 1.5
2018-Feb-21 15:30N 01°17' E 103°46'1 2.1
2018-Feb-21 14:58N 01°17' E 103°44'0 0.9
2018-Feb-21 14:30N 01°17' E 103°45'3 6.8
2018-Feb-21 14:00N 01°14' E 103°47'0 0.2
2018-Feb-21 13:30N 01°14' E 103°47'0 0.0
2018-Feb-21 13:00N 01°14' E 103°47'0 0.0
2018-Feb-21 12:30N 01°14' E 103°47'0 0.1
2018-Feb-21 12:00N 01°14' E 103°47'0 0.1
2018-Feb-21 11:27N 01°14' E 103°47'0 0.1
2018-Feb-21 11:00N 01°14' E 103°47'0 0.1
2018-Feb-21 10:30N 01°14' E 103°47'0 0.1
2018-Feb-21 10:00N 01°14' E 103°47'0 0.0
2018-Feb-21 09:30N 01°14' E 103°47'0 0.0
2018-Feb-21 09:00N 01°14' E 103°47'0 0.1
2018-Feb-21 08:30N 01°14' E 103°47'0 0.0
2018-Feb-21 08:00N 01°14' E 103°47'0 0.2
2018-Feb-21 07:30N 01°14' E 103°47'0 0.0
2018-Feb-21 07:00N 01°14' E 103°47'0 0.0
2018-Feb-21 06:30N 01°14' E 103°47'0 0.0
2018-Feb-21 06:00N 01°14' E 103°47'0 0.0
2018-Feb-21 05:21N 01°14' E 103°47'0 0.0
2018-Feb-21 05:00N 01°14' E 103°47'0 0.0
2018-Feb-21 04:21N 01°14' E 103°47'0 0.0
2018-Feb-21 03:57N 01°14' E 103°47'0 0.0
2018-Feb-21 03:30N 01°14' E 103°47'0 0.1
2018-Feb-21 02:54N 01°14' E 103°47'0 0.2
2018-Feb-21 02:30N 01°14' E 103°47'0 0.1
2018-Feb-21 02:00N 01°14' E 103°47'0 0.0
2018-Feb-21 01:30N 01°14' E 103°47'0 0.0
2018-Feb-21 00:57N 01°14' E 103°47'0 0.0
2018-Feb-21 00:30N 01°14' E 103°47'0 0.1
2018-Feb-21 00:00N 01°14' E 103°47'0 0.1
2018-Feb-20 23:30N 01°14' E 103°47'0 0.0
2018-Feb-20 23:00N 01°14' E 103°47'0 0.0
2018-Feb-20 22:30N 01°14' E 103°47'0 0.1
2018-Feb-20 21:57N 01°14' E 103°47'0 0.1
2018-Feb-20 21:30N 01°14' E 103°47'0 0.0
2018-Feb-20 21:00N 01°14' E 103°47'0 0.1
2018-Feb-20 20:30N 01°14' E 103°47'0 0.1
2018-Feb-20 20:00N 01°14' E 103°47'0 0.0
2018-Feb-20 19:24N 01°14' E 103°47'0 0.0
2018-Feb-20 18:57N 01°14' E 103°47'0 0.0
2018-Feb-20 18:30N 01°14' E 103°47'0 0.1
2018-Feb-20 18:00N 01°14' E 103°47'0 0.4
2018-Feb-20 17:29N 01°14' E 103°47'3 5.9
2018-Feb-20 17:00N 01°15' E 103°44'4 8.5
2018-Feb-20 16:30N 01°13' E 103°41'2 3.1
2018-Feb-20 15:59N 01°11' E 103°40'2 5.2
2018-Feb-20 15:30N 01°09' E 103°42'2 3.5
2018-Feb-20 14:58N 01°09' E 103°43'1 3.0
2018-Feb-20 14:31N 01°09' E 103°45'2 4.5
2018-Feb-20 13:59N 01°10' E 103°47'510.6
2018-Feb-20 13:29N 01°12' E 103°52'610.5
2018-Feb-20 12:57N 01°14' E 103°57'510.7
2018-Feb-20 12:29N 01°16' E 104°02'511.4
2018-Feb-20 12:00N 01°16' E 104°07'  
2018-Feb-15 09:12N 23°02' E 117°47'313.0
2018-Feb-15 08:59N 23°04' E 117°50'913.2
2018-Feb-15 08:18N 23°10' E 117°56'  

Dump ship's entire track history